sensor_id;sensor_type;location;lat;lon;timestamp;pressure;altitude;pressure_sealevel;temperature;humidity
72116;BME280;59991;52.140;5.428;2024-02-14T00:00:26;101262.66;;;7.08;100.00
72116;BME280;59991;52.140;5.428;2024-02-14T00:00:58;101254.50;;;7.08;100.00
72116;BME280;59991;52.140;5.428;2024-02-14T00:01:29;101260.72;;;7.08;100.00
72116;BME280;59991;52.140;5.428;2024-02-14T00:02:01;101259.16;;;7.07;100.00
72116;BME280;59991;52.140;5.428;2024-02-14T00:02:32;101256.09;;;7.09;100.00
72116;BME280;59991;52.140;5.428;2024-02-14T00:03:04;101261.53;;;7.09;100.00
72116;BME280;59991;52.140;5.428;2024-02-14T00:03:37;101252.25;;;7.10;100.00
72116;BME280;59991;52.140;5.428;2024-02-14T00:04:09;101253.03;;;7.10;100.00
72116;BME280;59991;52.140;5.428;2024-02-14T00:04:42;101246.84;;;7.10;100.00
72116;BME280;59991;52.140;5.428;2024-02-14T00:05:13;101241.06;;;7.11;100.00
72116;BME280;59991;52.140;5.428;2024-02-14T00:05:44;101248.41;;;7.11;100.00
72116;BME280;59991;52.140;5.428;2024-02-14T00:06:16;101245.69;;;7.11;100.00
72116;BME280;59991;52.140;5.428;2024-02-14T00:06:48;101251.53;;;7.13;100.00
72116;BME280;59991;52.140;5.428;2024-02-14T00:08:11;101251.53;;;7.13;100.00
72116;BME280;59991;52.140;5.428;2024-02-14T00:08:44;101248.84;;;7.13;100.00
72116;BME280;59991;52.140;5.428;2024-02-14T00:09:16;101250.41;;;7.14;100.00
72116;BME280;59991;52.140;5.428;2024-02-14T00:09:47;101252.34;;;7.13;100.00
72116;BME280;59991;52.140;5.428;2024-02-14T00:10:19;101253.13;;;7.14;100.00
72116;BME280;59991;52.140;5.428;2024-02-14T00:10:51;101255.84;;;7.14;100.00
72116;BME280;59991;52.140;5.428;2024-02-14T00:11:22;101252.00;;;7.15;100.00
72116;BME280;59991;52.140;5.428;2024-02-14T00:11:55;101249.28;;;7.15;100.00
72116;BME280;59991;52.140;5.428;2024-02-14T00:12:26;101252.00;;;7.15;100.00
72116;BME280;59991;52.140;5.428;2024-02-14T00:12:58;101254.72;;;7.15;100.00
72116;BME280;59991;52.140;5.428;2024-02-14T00:13:30;101249.28;;;7.15;100.00
72116;BME280;59991;52.140;5.428;2024-02-14T00:14:05;101245.44;;;7.16;100.00
72116;BME280;59991;52.140;5.428;2024-02-14T00:15:47;101252.44;;;7.17;100.00
72116;BME280;59991;52.140;5.428;2024-02-14T00:16:19;101247.81;;;7.17;100.00
72116;BME280;59991;52.140;5.428;2024-02-14T00:16:50;101248.59;;;7.18;100.00
72116;BME280;59991;52.140;5.428;2024-02-14T00:17:22;101251.31;;;7.18;100.00
72116;BME280;59991;52.140;5.428;2024-02-14T00:17:53;101253.22;;;7.17;100.00
72116;BME280;59991;52.140;5.428;2024-02-14T00:18:25;101243.97;;;7.18;100.00
72116;BME280;59991;52.140;5.428;2024-02-14T00:18:57;101250.53;;;7.17;100.00
72116;BME280;59991;52.140;5.428;2024-02-14T00:19:29;101245.53;;;7.19;100.00
72116;BME280;59991;52.140;5.428;2024-02-14T00:20:01;101249.38;;;7.18;100.00
72116;BME280;59991;52.140;5.428;2024-02-14T00:20:32;101246.34;;;7.20;100.00
72116;BME280;59991;52.140;5.428;2024-02-14T00:21:04;101248.25;;;7.19;100.00
72116;BME280;59991;52.140;5.428;2024-02-14T00:21:54;101247.91;;;7.21;100.00
72116;BME280;59991;52.140;5.428;2024-02-14T00:22:26;101247.13;;;7.20;100.00
72116;BME280;59991;52.140;5.428;2024-02-14T00:24:06;101249.50;;;7.22;100.00
72116;BME280;59991;52.140;5.428;2024-02-14T00:24:37;101247.13;;;7.20;100.00
72116;BME280;59991;52.140;5.428;2024-02-14T00:25:09;101248.72;;;7.21;100.00
72116;BME280;59991;52.140;5.428;2024-02-14T00:25:41;101251.41;;;7.21;100.00
72116;BME280;59991;52.140;5.428;2024-02-14T00:26:12;101250.63;;;7.21;100.00
72116;BME280;59991;52.140;5.428;2024-02-14T00:26:45;101233.22;;;7.22;100.00
72116;BME280;59991;52.140;5.428;2024-02-14T00:27:17;101246.78;;;7.22;100.00
72116;BME280;59991;52.140;5.428;2024-02-14T00:27:49;101247.56;;;7.22;100.00
72116;BME280;59991;52.140;5.428;2024-02-14T00:28:21;101252.66;;;7.24;100.00
72116;BME280;59991;52.140;5.428;2024-02-14T00:28:55;101238.31;;;7.23;100.00
72116;BME280;59991;52.140;5.428;2024-02-14T00:29:44;101236.38;;;7.24;100.00
72116;BME280;59991;52.140;5.428;2024-02-14T00:30:35;101239.09;;;7.24;100.00
72116;BME280;59991;52.140;5.428;2024-02-14T00:31:06;101236.38;;;7.24;100.00
72116;BME280;59991;52.140;5.428;2024-02-14T00:31:38;101237.97;;;7.25;100.00
72116;BME280;59991;52.140;5.428;2024-02-14T00:32:09;101235.25;;;7.25;100.00
72116;BME280;59991;52.140;5.428;2024-02-14T00:32:41;101230.63;;;7.25;100.00
72116;BME280;59991;52.140;5.428;2024-02-14T00:33:13;101235.25;;;7.25;100.00
72116;BME280;59991;52.140;5.428;2024-02-14T00:33:45;101232.53;;;7.25;100.00
72116;BME280;59991;52.140;5.428;2024-02-14T00:34:18;101240.34;;;7.26;100.00
72116;BME280;59991;52.140;5.428;2024-02-14T00:34:49;101231.41;;;7.26;100.00
72116;BME280;59991;52.140;5.428;2024-02-14T00:35:21;101232.19;;;7.26;100.00
72116;BME280;59991;52.140;5.428;2024-02-14T00:35:54;101231.41;;;7.26;100.00
72116;BME280;59991;52.140;5.428;2024-02-14T00:36:25;101239.53;;;7.26;100.00
72116;BME280;59991;52.140;5.428;2024-02-14T00:36:57;101226.78;;;7.26;100.00
72116;BME280;59991;52.140;5.428;2024-02-14T00:37:28;101235.69;;;7.27;100.00
72116;BME280;59991;52.140;5.428;2024-02-14T00:38:00;101233.78;;;7.27;100.00
72116;BME280;59991;52.140;5.428;2024-02-14T00:38:32;101235.34;;;7.28;100.00
72116;BME280;59991;52.140;5.428;2024-02-14T00:39:03;101227.22;;;7.28;100.00
72116;BME280;59991;52.140;5.428;2024-02-14T00:39:35;101233.44;;;7.29;100.00
72116;BME280;59991;52.140;5.428;2024-02-14T00:40:07;101226.09;;;7.30;100.00
72116;BME280;59991;52.140;5.428;2024-02-14T00:40:39;101224.16;;;7.30;100.00
72116;BME280;59991;52.140;5.428;2024-02-14T00:41:11;101225.75;;;7.31;100.00
72116;BME280;59991;52.140;5.428;2024-02-14T00:41:43;101224.56;;;7.32;100.00
72116;BME280;59991;52.140;5.428;2024-02-14T00:42:33;101231.59;;;7.33;100.00
72116;BME280;59991;52.140;5.428;2024-02-14T00:43:23;101220.72;;;7.33;100.00
72116;BME280;59991;52.140;5.428;2024-02-14T00:43:55;101220.72;;;7.33;100.00
72116;BME280;59991;52.140;5.428;2024-02-14T00:44:27;101226.94;;;7.34;100.00
72116;BME280;59991;52.140;5.428;2024-02-14T00:44:59;101218.03;;;7.33;100.00
72116;BME280;59991;52.140;5.428;2024-02-14T00:45:30;101224.22;;;7.34;100.00
72116;BME280;59991;52.140;5.428;2024-02-14T00:46:02;101223.88;;;7.35;100.00
72116;BME280;59991;52.140;5.428;2024-02-14T00:46:34;101221.19;;;7.35;100.00
72116;BME280;59991;52.140;5.428;2024-02-14T00:47:05;101221.97;;;7.36;100.00
72116;BME280;59991;52.140;5.428;2024-02-14T00:47:37;101224.69;;;7.36;100.00
72116;BME280;59991;52.140;5.428;2024-02-14T00:49:16;101224.78;;;7.39;100.00
72116;BME280;59991;52.140;5.428;2024-02-14T00:49:48;101225.91;;;7.38;100.00
72116;BME280;59991;52.140;5.428;2024-02-14T00:51:10;101221.28;;;7.39;100.00
72116;BME280;59991;52.140;5.428;2024-02-14T00:51:41;101217.00;;;7.38;100.00
72116;BME280;59991;52.140;5.428;2024-02-14T00:52:13;101226.72;;;7.39;100.00
72116;BME280;59991;52.140;5.428;2024-02-14T00:53:01;101219.03;;;7.41;100.00
72116;BME280;59991;52.140;5.428;2024-02-14T00:53:33;101217.44;;;7.40;100.00
72116;BME280;59991;52.140;5.428;2024-02-14T00:54:05;101215.50;;;7.40;100.00
72116;BME280;59991;52.140;5.428;2024-02-14T00:54:36;101221.38;;;7.42;100.00
72116;BME280;59991;52.140;5.428;2024-02-14T00:55:08;101212.47;;;7.42;100.00
72116;BME280;59991;52.140;5.428;2024-02-14T00:55:40;101214.38;;;7.41;100.00
72116;BME280;59991;52.140;5.428;2024-02-14T00:56:11;101220.59;;;7.42;100.00
72116;BME280;59991;52.140;5.428;2024-02-14T00:56:43;101211.31;;;7.43;100.00
72116;BME280;59991;52.140;5.428;2024-02-14T00:57:14;101214.03;;;7.43;100.00
72116;BME280;59991;52.140;5.428;2024-02-14T00:57:46;101213.69;;;7.44;100.00
72116;BME280;59991;52.140;5.428;2024-02-14T00:58:17;101212.13;;;7.43;100.00
72116;BME280;59991;52.140;5.428;2024-02-14T00:58:49;101211.78;;;7.45;100.00
72116;BME280;59991;52.140;5.428;2024-02-14T00:59:20;101214.47;;;7.45;100.00
72116;BME280;59991;52.140;5.428;2024-02-14T00:59:52;101211.44;;;7.46;100.00
72116;BME280;59991;52.140;5.428;2024-02-14T01:00:24;101216.84;;;7.46;100.00
72116;BME280;59991;52.140;5.428;2024-02-14T01:01:14;101220.00;;;7.48;100.00
72116;BME280;59991;52.140;5.428;2024-02-14T01:01:45;101212.22;;;7.47;100.00
72116;BME280;59991;52.140;5.428;2024-02-14T01:02:17;101222.72;;;7.48;100.00
72116;BME280;59991;52.140;5.428;2024-02-14T01:02:49;101218.09;;;7.49;100.00
72116;BME280;59991;52.140;5.428;2024-02-14T01:03:21;101221.59;;;7.49;100.00
72116;BME280;59991;52.140;5.428;2024-02-14T01:03:52;101220.00;;;7.48;100.00
72116;BME280;59991;52.140;5.428;2024-02-14T01:04:24;101219.66;;;7.50;100.00
72116;BME280;59991;52.140;5.428;2024-02-14T01:04:55;101221.59;;;7.49;100.00
72116;BME280;59991;52.140;5.428;2024-02-14T01:05:27;101224.72;;;7.51;100.00
72116;BME280;59991;52.140;5.428;2024-02-14T01:05:58;101220.88;;;7.52;100.00
72116;BME280;59991;52.140;5.428;2024-02-14T01:06:30;101218.16;;;7.52;100.00
72116;BME280;59991;52.140;5.428;2024-02-14T01:07:03;101215.44;;;7.52;100.00
72116;BME280;59991;52.140;5.428;2024-02-14T01:07:35;101220.53;;;7.54;100.00
72116;BME280;59991;52.140;5.428;2024-02-14T01:08:06;101211.59;;;7.53;100.00
72116;BME280;59991;52.140;5.428;2024-02-14T01:08:38;101208.88;;;7.53;100.00
72116;BME280;59991;52.140;5.428;2024-02-14T01:09:09;101206.97;;;7.54;100.00
72116;BME280;59991;52.140;5.428;2024-02-14T01:09:41;101207.75;;;7.54;100.00
72116;BME280;59991;52.140;5.428;2024-02-14T01:10:12;101206.63;;;7.55;100.00
72116;BME280;59991;52.140;5.428;2024-02-14T01:10:44;101210.47;;;7.54;100.00
72116;BME280;59991;52.140;5.428;2024-02-14T01:11:17;101218.25;;;7.56;100.00
72116;BME280;59991;52.140;5.428;2024-02-14T01:12:07;101206.28;;;7.57;100.00
72116;BME280;59991;52.140;5.428;2024-02-14T01:12:39;101212.50;;;7.57;100.00
72116;BME280;59991;52.140;5.428;2024-02-14T01:13:11;101211.69;;;7.57;100.00
72116;BME280;59991;52.140;5.428;2024-02-14T01:13:43;101207.84;;;7.58;100.00
72116;BME280;59991;52.140;5.428;2024-02-14T01:14:14;101208.63;;;7.58;100.00
72116;BME280;59991;52.140;5.428;2024-02-14T01:15:04;101209.44;;;7.59;100.00
72116;BME280;59991;52.140;5.428;2024-02-14T01:15:36;101206.72;;;7.59;100.00
72116;BME280;59991;52.140;5.428;2024-02-14T01:16:08;101205.94;;;7.58;100.00
72116;BME280;59991;52.140;5.428;2024-02-14T01:16:45;101209.09;;;7.60;100.00
72116;BME280;59991;52.140;5.428;2024-02-14T01:17:16;101208.28;;;7.60;100.00
72116;BME280;59991;52.140;5.428;2024-02-14T01:17:48;101207.94;;;7.61;100.00
72116;BME280;59991;52.140;5.428;2024-02-14T01:18:20;101209.09;;;7.60;100.00
72116;BME280;59991;52.140;5.428;2024-02-14T01:18:52;101202.53;;;7.61;100.00
72116;BME280;59991;52.140;5.428;2024-02-14T01:19:40;101213.38;;;7.61;100.00
72116;BME280;59991;52.140;5.428;2024-02-14T01:20:12;101210.66;;;7.61;100.00
72116;BME280;59991;52.140;5.428;2024-02-14T01:20:43;101205.22;;;7.61;100.00
72116;BME280;59991;52.140;5.428;2024-02-14T01:21:15;101204.09;;;7.62;100.00
72116;BME280;59991;52.140;5.428;2024-02-14T01:21:46;101204.09;;;7.62;100.00
72116;BME280;59991;52.140;5.428;2024-02-14T01:22:54;101207.25;;;7.65;100.00
72116;BME280;59991;52.140;5.428;2024-02-14T01:23:26;101205.69;;;7.63;100.00
72116;BME280;59991;52.140;5.428;2024-02-14T01:23:57;101207.59;;;7.63;100.00
72116;BME280;59991;52.140;5.428;2024-02-14T01:24:29;101204.53;;;7.65;100.00
72116;BME280;59991;52.140;5.428;2024-02-14T01:25:01;101201.81;;;7.65;100.00
72116;BME280;59991;52.140;5.428;2024-02-14T01:25:34;101212.69;;;7.65;100.00
72116;BME280;59991;52.140;5.428;2024-02-14T01:26:05;101199.91;;;7.65;100.00
72116;BME280;59991;52.140;5.428;2024-02-14T01:26:37;101209.97;;;7.65;100.00
72116;BME280;59991;52.140;5.428;2024-02-14T01:27:09;101203.41;;;7.66;100.00
72116;BME280;59991;52.140;5.428;2024-02-14T01:27:59;101207.69;;;7.67;100.00
72116;BME280;59991;52.140;5.428;2024-02-14T01:28:31;101207.69;;;7.67;100.00
72116;BME280;59991;52.140;5.428;2024-02-14T01:29:21;101210.84;;;7.69;100.00
72116;BME280;59991;52.140;5.428;2024-02-14T01:29:54;101209.28;;;7.68;100.00
72116;BME280;59991;52.140;5.428;2024-02-14T01:31:16;101213.56;;;7.69;100.00
72116;BME280;59991;52.140;5.428;2024-02-14T01:31:47;101203.50;;;7.69;100.00
72116;BME280;59991;52.140;5.428;2024-02-14T01:32:20;101207.00;;;7.70;100.00
72116;BME280;59991;52.140;5.428;2024-02-14T01:32:51;101208.56;;;7.71;100.00
72116;BME280;59991;52.140;5.428;2024-02-14T01:33:24;101204.28;;;7.70;100.00
72116;BME280;59991;52.140;5.428;2024-02-14T01:33:56;101199.63;;;7.70;100.00
72116;BME280;59991;52.140;5.428;2024-02-14T01:34:27;101202.00;;;7.72;100.00
72116;BME280;59991;52.140;5.428;2024-02-14T01:35:02;101206.28;;;7.73;100.00
72116;BME280;59991;52.140;5.428;2024-02-14T01:35:35;101206.28;;;7.73;100.00
72116;BME280;59991;52.140;5.428;2024-02-14T01:36:06;101205.16;;;7.74;100.00
72116;BME280;59991;52.140;5.428;2024-02-14T01:36:38;101202.44;;;7.74;100.00
72116;BME280;59991;52.140;5.428;2024-02-14T01:37:10;101205.94;;;7.74;100.00
72116;BME280;59991;52.140;5.428;2024-02-14T01:37:41;101210.22;;;7.75;100.00
72116;BME280;59991;52.140;5.428;2024-02-14T01:38:16;101205.94;;;7.74;100.00
72116;BME280;59991;52.140;5.428;2024-02-14T01:39:39;101202.88;;;7.76;100.00
72116;BME280;59991;52.140;5.428;2024-02-14T01:40:29;101200.97;;;7.76;100.00
72116;BME280;59991;52.140;5.428;2024-02-14T01:41:02;101201.75;;;7.77;100.00
72116;BME280;59991;52.140;5.428;2024-02-14T01:41:34;101207.97;;;7.77;100.00
72116;BME280;59991;52.140;5.428;2024-02-14T01:42:05;101199.03;;;7.77;100.00
72116;BME280;59991;52.140;5.428;2024-02-14T01:42:39;101207.97;;;7.77;100.00
72116;BME280;59991;52.140;5.428;2024-02-14T01:43:11;101195.97;;;7.78;100.00
72116;BME280;59991;52.140;5.428;2024-02-14T01:43:42;101211.47;;;7.78;100.00
72116;BME280;59991;52.140;5.428;2024-02-14T01:44:16;101197.09;;;7.77;100.00
72116;BME280;59991;52.140;5.428;2024-02-14T01:44:48;101202.19;;;7.79;100.00
72116;BME280;59991;52.140;5.428;2024-02-14T01:45:19;101200.59;;;7.78;100.00
72116;BME280;59991;52.140;5.428;2024-02-14T01:45:51;101205.69;;;7.79;100.00
72116;BME280;59991;52.140;5.428;2024-02-14T01:46:22;101206.47;;;7.80;100.00
72116;BME280;59991;52.140;5.428;2024-02-14T01:46:54;101204.56;;;7.80;100.00
72116;BME280;59991;52.140;5.428;2024-02-14T01:47:25;101202.63;;;7.81;100.00
72116;BME280;59991;52.140;5.428;2024-02-14T01:47:57;101198.34;;;7.80;100.00
72116;BME280;59991;52.140;5.428;2024-02-14T01:48:29;101200.72;;;7.81;100.00
72116;BME280;59991;52.140;5.428;2024-02-14T01:49:00;101205.34;;;7.81;100.00
72116;BME280;59991;52.140;5.428;2024-02-14T01:49:33;101195.28;;;7.81;100.00
72116;BME280;59991;52.140;5.428;2024-02-14T01:50:06;101206.91;;;7.82;100.00
72116;BME280;59991;52.140;5.428;2024-02-14T01:50:40;101195.28;;;7.81;100.00
72116;BME280;59991;52.140;5.428;2024-02-14T01:51:13;101215.06;;;7.82;100.00
72116;BME280;59991;52.140;5.428;2024-02-14T01:51:46;101204.22;;;7.82;100.00
72116;BME280;59991;52.140;5.428;2024-02-14T01:52:17;101197.66;;;7.83;100.00
72116;BME280;59991;52.140;5.428;2024-02-14T01:52:49;101197.66;;;7.83;100.00
72116;BME280;59991;52.140;5.428;2024-02-14T01:53:21;101199.22;;;7.84;100.00
72116;BME280;59991;52.140;5.428;2024-02-14T01:53:53;101198.09;;;7.85;100.00
72116;BME280;59991;52.140;5.428;2024-02-14T01:54:25;101195.38;;;7.85;100.00
72116;BME280;59991;52.140;5.428;2024-02-14T01:54:58;101199.66;;;7.86;100.00
72116;BME280;59991;52.140;5.428;2024-02-14T01:55:30;101200.44;;;7.86;100.00
72116;BME280;59991;52.140;5.428;2024-02-14T01:56:02;101199.31;;;7.87;100.00
72116;BME280;59991;52.140;5.428;2024-02-14T01:56:35;101200.44;;;7.86;100.00
72116;BME280;59991;52.140;5.428;2024-02-14T01:57:08;101197.41;;;7.88;100.00
72116;BME280;59991;52.140;5.428;2024-02-14T01:57:39;101201.25;;;7.87;100.00
72116;BME280;59991;52.140;5.428;2024-02-14T01:58:29;101202.81;;;7.88;100.00
72116;BME280;59991;52.140;5.428;2024-02-14T01:59:01;101195.47;;;7.88;100.00
72116;BME280;59991;52.140;5.428;2024-02-14T01:59:33;101207.09;;;7.89;100.00
72116;BME280;59991;52.140;5.428;2024-02-14T02:00:07;101203.22;;;7.90;100.00
72116;BME280;59991;52.140;5.428;2024-02-14T02:00:40;101205.94;;;7.90;100.00
72116;BME280;59991;52.140;5.428;2024-02-14T02:01:12;101200.53;;;7.90;100.00
72116;BME280;59991;52.140;5.428;2024-02-14T02:01:44;101196.66;;;7.91;100.00
72116;BME280;59991;52.140;5.428;2024-02-14T02:02:34;101198.25;;;7.92;100.00
72116;BME280;59991;52.140;5.428;2024-02-14T02:03:08;101196.31;;;7.92;100.00
72116;BME280;59991;52.140;5.428;2024-02-14T02:03:40;101198.25;;;7.92;100.00
72116;BME280;59991;52.140;5.428;2024-02-14T02:04:12;101199.81;;;7.93;100.00
72116;BME280;59991;52.140;5.428;2024-02-14T02:04:43;101201.41;;;7.94;100.00
72116;BME280;59991;52.140;5.428;2024-02-14T02:05:32;101202.19;;;7.94;100.00
72116;BME280;59991;52.140;5.428;2024-02-14T02:06:06;101202.19;;;7.94;100.00
72116;BME280;59991;52.140;5.428;2024-02-14T02:06:38;101207.63;;;7.94;100.00
72116;BME280;59991;52.140;5.428;2024-02-14T02:07:12;101187.47;;;7.95;100.00
72116;BME280;59991;52.140;5.428;2024-02-14T02:07:45;101203.78;;;7.95;100.00
72116;BME280;59991;52.140;5.428;2024-02-14T02:08:20;101198.00;;;7.97;100.00
72116;BME280;59991;52.140;5.428;2024-02-14T02:08:51;101205.34;;;7.96;100.00
72116;BME280;59991;52.140;5.428;2024-02-14T02:09:23;101203.41;;;7.97;100.00
72116;BME280;59991;52.140;5.428;2024-02-14T02:09:54;101198.00;;;7.97;100.00
72116;BME280;59991;52.140;5.428;2024-02-14T02:10:26;101205.78;;;7.98;100.00
72116;BME280;59991;52.140;5.428;2024-02-14T02:10:58;101211.22;;;7.98;100.00
72116;BME280;59991;52.140;5.428;2024-02-14T02:11:30;101207.72;;;7.98;100.00
72116;BME280;59991;52.140;5.428;2024-02-14T02:12:02;101208.16;;;8.00;100.00
72116;BME280;59991;52.140;5.428;2024-02-14T02:12:38;101202.72;;;8.00;100.00
72116;BME280;59991;52.140;5.428;2024-02-14T02:13:13;101213.59;;;8.00;100.00
72116;BME280;59991;52.140;5.428;2024-02-14T02:13:47;101204.31;;;8.01;100.00
72116;BME280;59991;52.140;5.428;2024-02-14T02:14:18;101205.09;;;8.02;100.00
72116;BME280;59991;52.140;5.428;2024-02-14T02:14:50;101198.88;;;8.01;100.00
72116;BME280;59991;52.140;5.428;2024-02-14T02:15:22;101205.88;;;8.02;100.00
72116;BME280;59991;52.140;5.428;2024-02-14T02:15:53;101204.31;;;8.01;100.00
72116;BME280;59991;52.140;5.428;2024-02-14T02:16:25;101209.38;;;8.03;100.00
72116;BME280;59991;52.140;5.428;2024-02-14T02:16:56;101209.38;;;8.03;100.00
72116;BME280;59991;52.140;5.428;2024-02-14T02:17:28;101199.31;;;8.03;100.00
72116;BME280;59991;52.140;5.428;2024-02-14T02:18:18;101206.31;;;8.04;100.00
72116;BME280;59991;52.140;5.428;2024-02-14T02:18:51;101210.63;;;8.05;100.00
72116;BME280;59991;52.140;5.428;2024-02-14T02:19:22;101209.84;;;8.05;100.00
72116;BME280;59991;52.140;5.428;2024-02-14T02:19:54;101210.63;;;8.05;100.00
72116;BME280;59991;52.140;5.428;2024-02-14T02:20:26;101214.91;;;8.06;100.00
72116;BME280;59991;52.140;5.428;2024-02-14T02:20:59;101213.78;;;8.07;100.00
72116;BME280;59991;52.140;5.428;2024-02-14T02:21:31;101202.13;;;8.07;100.00
72116;BME280;59991;52.140;5.428;2024-02-14T02:22:02;101211.06;;;8.07;100.00
72116;BME280;59991;52.140;5.428;2024-02-14T02:22:36;101220.75;;;8.08;100.00
72116;BME280;59991;52.140;5.428;2024-02-14T02:23:09;101207.97;;;8.09;100.00
72116;BME280;59991;52.140;5.428;2024-02-14T02:23:41;101209.13;;;8.08;100.00
72116;BME280;59991;52.140;5.428;2024-02-14T02:24:15;101207.97;;;8.09;100.00
72116;BME280;59991;52.140;5.428;2024-02-14T02:24:47;101206.81;;;8.10;100.00
72116;BME280;59991;52.140;5.428;2024-02-14T02:25:19;101212.25;;;8.10;100.00
72116;BME280;59991;52.140;5.428;2024-02-14T02:25:57;101211.84;;;8.08;100.00
72116;BME280;59991;52.140;5.428;2024-02-14T02:26:29;101207.97;;;8.09;100.00
72116;BME280;59991;52.140;5.428;2024-02-14T02:27:00;101210.34;;;8.10;100.00
72116;BME280;59991;52.140;5.428;2024-02-14T02:27:32;101209.53;;;8.10;100.00
72116;BME280;59991;52.140;5.428;2024-02-14T02:28:03;101204.13;;;8.10;100.00
72116;BME280;59991;52.140;5.428;2024-02-14T02:28:35;101210.78;;;8.12;100.00
72116;BME280;59991;52.140;5.428;2024-02-14T02:29:07;101213.50;;;8.12;100.00
72116;BME280;59991;52.140;5.428;2024-02-14T02:29:38;101210.78;;;8.12;100.00
72116;BME280;59991;52.140;5.428;2024-02-14T02:30:10;101214.28;;;8.13;100.00
72116;BME280;59991;52.140;5.428;2024-02-14T02:30:42;101214.28;;;8.13;100.00
72116;BME280;59991;52.140;5.428;2024-02-14T02:31:13;101202.63;;;8.12;100.00
72116;BME280;59991;52.140;5.428;2024-02-14T02:31:46;101215.06;;;8.13;100.00
72116;BME280;59991;52.140;5.428;2024-02-14T02:32:17;101213.94;;;8.14;100.00
72116;BME280;59991;52.140;5.428;2024-02-14T02:32:49;101212.34;;;8.13;100.00
72116;BME280;59991;52.140;5.428;2024-02-14T02:33:22;101220.94;;;8.15;100.00
72116;BME280;59991;52.140;5.428;2024-02-14T02:34:13;101214.72;;;8.15;100.00
72116;BME280;59991;52.140;5.428;2024-02-14T02:34:45;101204.66;;;8.15;100.00
72116;BME280;59991;52.140;5.428;2024-02-14T02:35:17;101223.66;;;8.15;100.00
72116;BME280;59991;52.140;5.428;2024-02-14T02:35:52;101214.38;;;8.16;100.00
72116;BME280;59991;52.140;5.428;2024-02-14T02:36:24;101212.78;;;8.15;100.00
72116;BME280;59991;52.140;5.428;2024-02-14T02:36:56;101210.88;;;8.16;100.00
72116;BME280;59991;52.140;5.428;2024-02-14T02:37:27;101218.66;;;8.17;100.00
72116;BME280;59991;52.140;5.428;2024-02-14T02:38:01;101212.44;;;8.17;100.00
72116;BME280;59991;52.140;5.428;2024-02-14T02:38:32;101220.25;;;8.18;100.00
72116;BME280;59991;52.140;5.428;2024-02-14T02:39:04;101220.25;;;8.18;100.00
72116;BME280;59991;52.140;5.428;2024-02-14T02:39:36;101214.81;;;8.18;100.00
72116;BME280;59991;52.140;5.428;2024-02-14T02:40:08;101212.88;;;8.19;100.00
72116;BME280;59991;52.140;5.428;2024-02-14T02:40:42;101222.63;;;8.20;100.00
72116;BME280;59991;52.140;5.428;2024-02-14T02:41:15;101215.59;;;8.19;100.00
72116;BME280;59991;52.140;5.428;2024-02-14T02:41:46;101226.47;;;8.19;100.00
72116;BME280;59991;52.140;5.428;2024-02-14T02:42:20;101216.38;;;8.19;100.00
72116;BME280;59991;52.140;5.428;2024-02-14T02:42:51;101226.13;;;8.20;100.00
72116;BME280;59991;52.140;5.428;2024-02-14T02:43:23;101218.75;;;8.21;100.00
72116;BME280;59991;52.140;5.428;2024-02-14T02:43:54;101222.25;;;8.21;100.00
72116;BME280;59991;52.140;5.428;2024-02-14T02:44:26;101215.25;;;8.20;100.00
72116;BME280;59991;52.140;5.428;2024-02-14T02:44:58;101222.25;;;8.21;100.00
72116;BME280;59991;52.140;5.428;2024-02-14T02:45:30;101217.63;;;8.22;100.00
72116;BME280;59991;52.140;5.428;2024-02-14T02:46:02;101224.63;;;8.23;100.00
72116;BME280;59991;52.140;5.428;2024-02-14T02:46:33;101214.13;;;8.21;100.00
72116;BME280;59991;52.140;5.428;2024-02-14T02:47:05;101223.84;;;8.22;100.00
72116;BME280;59991;52.140;5.428;2024-02-14T02:47:36;101223.84;;;8.22;100.00
72116;BME280;59991;52.140;5.428;2024-02-14T02:48:08;101219.19;;;8.23;100.00
72116;BME280;59991;52.140;5.428;2024-02-14T02:48:40;101223.50;;;8.24;100.00
72116;BME280;59991;52.140;5.428;2024-02-14T02:49:12;101218.84;;;8.24;100.00
72116;BME280;59991;52.140;5.428;2024-02-14T02:49:45;101217.28;;;8.23;100.00
72116;BME280;59991;52.140;5.428;2024-02-14T02:50:17;101217.72;;;8.25;100.00
72116;BME280;59991;52.140;5.428;2024-02-14T02:50:49;101227.78;;;8.25;100.00
72116;BME280;59991;52.140;5.428;2024-02-14T02:51:21;101214.19;;;8.25;100.00
72116;BME280;59991;52.140;5.428;2024-02-14T02:51:52;101221.22;;;8.26;100.00
72116;BME280;59991;52.140;5.428;2024-02-14T02:52:24;101221.22;;;8.26;100.00
72116;BME280;59991;52.140;5.428;2024-02-14T02:52:55;101217.72;;;8.25;100.00
72116;BME280;59991;52.140;5.428;2024-02-14T02:53:46;101217.38;;;8.27;100.00
72116;BME280;59991;52.140;5.428;2024-02-14T02:54:18;101216.56;;;8.26;100.00
72116;BME280;59991;52.140;5.428;2024-02-14T02:55:07;101213.84;;;8.26;100.00
72116;BME280;59991;52.140;5.428;2024-02-14T02:55:38;101220.84;;;8.27;100.00
72116;BME280;59991;52.140;5.428;2024-02-14T02:56:10;101215.41;;;8.27;100.00
72116;BME280;59991;52.140;5.428;2024-02-14T02:56:43;101220.84;;;8.27;100.00
72116;BME280;59991;52.140;5.428;2024-02-14T02:57:14;101225.13;;;8.28;100.00
72116;BME280;59991;52.140;5.428;2024-02-14T02:57:46;101221.28;;;8.29;100.00
72116;BME280;59991;52.140;5.428;2024-02-14T02:58:17;101218.91;;;8.28;100.00
72116;BME280;59991;52.140;5.428;2024-02-14T02:58:49;101216.63;;;8.30;100.00
72116;BME280;59991;52.140;5.428;2024-02-14T02:59:20;101213.13;;;8.29;100.00
72116;BME280;59991;52.140;5.428;2024-02-14T02:59:53;101213.91;;;8.30;100.00
72116;BME280;59991;52.140;5.428;2024-02-14T03:00:25;101222.06;;;8.30;100.00
72116;BME280;59991;52.140;5.428;2024-02-14T03:00:58;101217.41;;;8.30;100.00